createdAt,value
2023-10-24T00:00:53.665Z,13.32
2023-10-24T00:03:21.126Z,11.93
2023-10-24T00:05:49.415Z,14.53
2023-10-24T00:08:16.923Z,15.02
2023-10-24T00:10:44.385Z,13.00
2023-10-24T00:13:11.906Z,14.80
2023-10-24T00:15:39.211Z,15.27
2023-10-24T00:18:06.983Z,15.10
2023-10-24T00:20:34.260Z,19.88
2023-10-24T00:23:01.386Z,18.90
2023-10-24T00:25:29.002Z,17.98
2023-10-24T00:27:56.071Z,20.17
2023-10-24T00:30:23.148Z,22.67
2023-10-24T00:32:51.326Z,18.00
2023-10-24T00:35:19.387Z,21.55
2023-10-24T00:37:46.666Z,23.85
2023-10-24T00:40:14.182Z,31.42
2023-10-24T00:42:41.495Z,22.70
2023-10-24T00:45:10.648Z,20.75
2023-10-24T00:47:39.690Z,27.63
2023-10-24T00:50:08.841Z,23.02
2023-10-24T00:52:37.830Z,25.60
2023-10-24T00:55:07.172Z,26.63
2023-10-24T00:57:34.380Z,22.95
2023-10-24T01:00:02.681Z,20.23
2023-10-24T01:02:30.088Z,27.70
2023-10-24T01:05:00.640Z,25.33
2023-10-24T01:07:27.972Z,24.23
2023-10-24T01:09:55.254Z,34.78
2023-10-24T01:12:22.484Z,24.25
2023-10-24T01:14:49.883Z,26.20
2023-10-24T01:17:18.822Z,22.25
2023-10-24T01:19:46.050Z,25.50
2023-10-24T01:22:14.002Z,28.63
2023-10-24T01:24:42.832Z,25.33
2023-10-24T01:27:10.267Z,28.75
2023-10-24T01:29:37.926Z,26.90
2023-10-24T01:32:05.573Z,26.33
2023-10-24T01:34:33.841Z,20.33
2023-10-24T01:37:06.769Z,20.42
2023-10-24T01:39:33.915Z,23.77
2023-10-24T01:42:01.166Z,27.02
2023-10-24T01:44:28.496Z,22.13
2023-10-24T01:46:57.500Z,21.77
2023-10-24T01:49:24.997Z,23.35
2023-10-24T01:51:52.608Z,18.50
2023-10-24T01:54:19.987Z,19.90
2023-10-24T01:56:47.080Z,26.07
2023-10-24T01:59:16.557Z,20.25
2023-10-24T02:01:43.822Z,21.08
2023-10-24T02:04:14.923Z,21.10
2023-10-24T02:06:42.513Z,24.83
2023-10-24T02:09:09.593Z,23.73
2023-10-24T02:11:37.026Z,22.00
2023-10-24T02:14:05.997Z,23.10
2023-10-24T02:16:34.348Z,22.38
2023-10-24T02:19:01.446Z,22.55
2023-10-24T02:21:28.615Z,16.83
2023-10-24T02:23:56.062Z,18.33
2023-10-24T02:26:23.220Z,16.42
2023-10-24T02:28:50.472Z,19.00
2023-10-24T02:31:17.657Z,16.48
2023-10-24T02:33:44.652Z,15.33
2023-10-24T02:36:13.840Z,19.05
2023-10-24T02:38:41.130Z,30.15
2023-10-24T02:41:08.264Z,15.73
2023-10-24T02:43:35.628Z,14.07
2023-10-24T02:46:04.849Z,15.83
2023-10-24T02:48:32.584Z,14.65
2023-10-24T02:51:00.218Z,13.15
2023-10-24T02:53:27.984Z,13.82
2023-10-24T02:55:55.105Z,13.88
2023-10-24T02:58:23.924Z,18.43
2023-10-24T03:00:51.304Z,15.43
2023-10-24T03:03:18.918Z,17.08
2023-10-24T03:05:47.268Z,13.80
2023-10-24T03:08:15.003Z,14.93
2023-10-24T03:10:43.007Z,13.80
2023-10-24T03:13:10.319Z,15.50
2023-10-24T03:15:37.493Z,18.67
2023-10-24T03:18:04.817Z,20.15
2023-10-24T03:20:32.063Z,20.42
2023-10-24T03:22:59.133Z,20.73
2023-10-24T03:25:27.949Z,23.95
2023-10-24T03:27:55.927Z,19.50
2023-10-24T03:30:23.061Z,26.00
2023-10-24T03:32:50.348Z,26.10
2023-10-24T03:35:20.728Z,21.03
2023-10-24T03:37:48.026Z,25.45
2023-10-24T03:40:15.685Z,21.70
2023-10-24T03:42:42.892Z,21.83
2023-10-24T03:45:10.172Z,25.02
2023-10-24T03:47:38.101Z,26.63
2023-10-24T03:50:05.634Z,26.60
2023-10-24T03:52:32.716Z,26.30
2023-10-24T03:55:00.811Z,25.92
2023-10-24T03:57:27.984Z,26.52
2023-10-24T03:59:55.007Z,24.00
2023-10-24T04:02:22.088Z,31.45
2023-10-24T04:04:49.836Z,26.67
2023-10-24T04:07:17.734Z,29.42
2023-10-24T04:09:44.837Z,26.67
2023-10-24T04:12:11.898Z,26.47
2023-10-24T04:14:39.081Z,25.63
2023-10-24T04:17:06.775Z,24.27
2023-10-24T04:19:33.894Z,27.00
2023-10-24T04:22:01.298Z,33.15
2023-10-24T04:24:28.851Z,22.63
2023-10-24T04:26:56.525Z,26.90
2023-10-24T04:29:23.820Z,29.83
2023-10-24T04:31:51.454Z,23.35
2023-10-24T04:34:19.765Z,24.13
2023-10-24T04:36:48.042Z,24.17
2023-10-24T04:39:15.265Z,23.13
2023-10-24T04:41:42.365Z,26.60
2023-10-24T04:44:09.430Z,22.58
2023-10-24T04:46:36.869Z,24.38
2023-10-24T04:49:04.286Z,27.90
2023-10-24T04:51:31.313Z,25.42
2023-10-24T04:53:58.786Z,22.92
2023-10-24T04:56:25.948Z,20.27
2023-10-24T04:58:53.217Z,22.70
2023-10-24T05:01:20.936Z,20.63
2023-10-24T05:03:48.269Z,20.88
2023-10-24T05:06:15.574Z,23.17
2023-10-24T05:08:42.961Z,22.52
2023-10-24T05:11:10.183Z,23.35
2023-10-24T05:13:37.601Z,22.43
2023-10-24T05:16:05.938Z,19.88
2023-10-24T05:18:33.325Z,19.85
2023-10-24T05:21:00.397Z,19.88
2023-10-24T05:23:28.035Z,21.58
2023-10-24T05:25:55.296Z,18.63
2023-10-24T05:28:22.734Z,20.17
2023-10-24T05:30:49.969Z,19.02
2023-10-24T05:33:17.120Z,22.98
2023-10-24T05:35:50.328Z,20.48
2023-10-24T05:38:17.517Z,19.90
2023-10-24T05:40:48.205Z,17.48
2023-10-24T05:43:15.474Z,17.95
2023-10-24T05:45:42.690Z,17.35
2023-10-24T05:48:09.936Z,19.50
2023-10-24T05:50:37.996Z,16.47
2023-10-24T05:53:05.253Z,19.00
2023-10-24T05:55:35.145Z,16.98
2023-10-24T05:58:02.823Z,12.32
2023-10-24T06:00:30.201Z,16.73
2023-10-24T06:02:57.494Z,17.27
2023-10-24T06:05:26.220Z,15.40
2023-10-24T06:07:53.529Z,17.23
2023-10-24T06:10:20.812Z,20.30
2023-10-24T06:12:48.376Z,16.38
2023-10-24T06:15:15.645Z,13.37
2023-10-24T06:17:43.038Z,16.58
2023-10-24T06:20:10.786Z,14.48
2023-10-24T06:22:37.905Z,16.08
2023-10-24T06:25:05.493Z,15.70
2023-10-24T06:27:32.962Z,13.27
2023-10-24T06:30:00.168Z,15.02
2023-10-24T06:32:27.528Z,16.38
2023-10-24T06:34:54.925Z,12.18
2023-10-24T06:37:22.229Z,17.35
2023-10-24T06:39:49.757Z,16.10
2023-10-24T06:42:16.848Z,14.90
2023-10-24T06:44:43.862Z,17.65
2023-10-24T06:47:11.143Z,15.98
2023-10-24T06:49:39.010Z,16.25
2023-10-24T06:52:06.427Z,14.87
2023-10-24T06:54:33.572Z,14.50
2023-10-24T06:57:00.612Z,14.75
2023-10-24T06:59:30.988Z,17.60
2023-10-24T07:02:00.932Z,14.85
2023-10-24T07:04:28.429Z,16.27
2023-10-24T07:06:55.599Z,16.55
2023-10-24T07:09:22.720Z,15.05
2023-10-24T07:11:49.867Z,21.23
2023-10-24T07:14:17.044Z,17.40
2023-10-24T07:16:44.337Z,20.50
2023-10-24T07:19:12.200Z,16.45
2023-10-24T07:21:39.380Z,18.13
2023-10-24T07:24:07.261Z,17.88
2023-10-24T07:26:34.486Z,21.38
2023-10-24T07:29:01.832Z,18.70
2023-10-24T07:31:30.414Z,17.95
2023-10-24T07:33:57.817Z,17.92
2023-10-24T07:36:29.348Z,21.35
2023-10-24T07:38:57.173Z,20.33
2023-10-24T07:41:24.394Z,20.60
2023-10-24T07:43:51.844Z,19.58
2023-10-24T07:46:20.260Z,22.23
2023-10-24T07:48:51.067Z,18.40
2023-10-24T07:51:20.605Z,19.65
2023-10-24T07:53:48.102Z,17.03
2023-10-24T07:56:15.449Z,21.73
2023-10-24T07:58:42.637Z,20.40
2023-10-24T08:01:10.114Z,17.27
2023-10-24T08:03:37.978Z,18.70
2023-10-24T08:06:05.716Z,17.87
2023-10-24T08:08:32.948Z,18.65
2023-10-24T08:11:00.156Z,18.10
2023-10-24T08:13:27.817Z,18.70
2023-10-24T08:15:55.120Z,20.65
2023-10-24T08:18:24.937Z,20.87
2023-10-24T08:20:52.491Z,17.30
2023-10-24T08:23:19.715Z,19.00
2023-10-24T08:25:46.994Z,18.65
2023-10-24T08:28:14.102Z,20.17
2023-10-24T08:30:41.568Z,16.43
2023-10-24T08:33:20.249Z,20.38
2023-10-24T08:35:48.096Z,18.65
2023-10-24T08:38:15.217Z,18.20
2023-10-24T08:40:42.710Z,21.55
2023-10-24T08:43:12.432Z,18.10
2023-10-24T08:45:40.465Z,17.13
2023-10-24T08:48:07.903Z,17.50
2023-10-24T08:50:35.327Z,20.33
2023-10-24T08:53:03.149Z,20.30
2023-10-24T08:55:31.018Z,15.77
2023-10-24T08:58:01.705Z,14.90
2023-10-24T09:00:29.319Z,14.95
2023-10-24T09:02:58.152Z,14.98
2023-10-24T09:05:29.083Z,16.30
2023-10-24T09:07:57.860Z,13.77
2023-10-24T09:10:25.425Z,18.08
2023-10-24T11:56:03.802Z,14.30
2023-10-24T11:58:34.811Z,10.85
2023-10-24T12:01:03.201Z,8.60
2023-10-24T12:03:48.146Z,11.65
2023-10-24T12:06:20.078Z,7.03
2023-10-24T12:08:49.916Z,7.23
2023-10-24T12:11:18.241Z,10.05
2023-10-24T12:13:47.181Z,7.32
2023-10-24T12:16:14.929Z,6.40
2023-10-24T12:18:42.730Z,5.97
2023-10-24T12:21:11.723Z,8.57
2023-10-24T12:23:39.273Z,8.27
2023-10-24T12:26:07.390Z,6.25
2023-10-24T12:28:35.969Z,6.90
2023-10-24T12:31:05.536Z,8.00
2023-10-24T12:33:33.318Z,5.93
2023-10-24T12:36:01.709Z,5.30
2023-10-24T12:38:30.228Z,5.03
2023-10-24T12:40:58.030Z,10.68
2023-10-24T12:43:25.186Z,5.78
2023-10-24T12:45:53.456Z,8.23
2023-10-24T12:48:21.084Z,10.25
2023-10-24T12:50:48.637Z,5.68
2023-10-24T12:53:16.593Z,4.65
2023-10-24T12:55:44.431Z,4.28
2023-10-24T12:58:12.048Z,8.03
2023-10-24T13:00:39.910Z,3.95
2023-10-24T13:03:17.139Z,4.93
2023-10-24T13:05:49.076Z,5.15
2023-10-24T13:08:16.943Z,4.40
2023-10-24T13:10:45.315Z,8.70
2023-10-24T13:13:13.192Z,3.60
2023-10-24T13:15:41.328Z,11.93
2023-10-24T13:18:09.234Z,4.15
2023-10-24T13:20:37.367Z,4.20
2023-10-24T13:23:05.017Z,5.90
2023-10-24T13:25:33.589Z,6.70
2023-10-24T13:28:01.302Z,6.55
2023-10-24T13:33:07.393Z,4.10
2023-10-24T13:38:05.888Z,4.78
2023-10-24T13:40:35.456Z,4.78
2023-10-24T13:43:04.280Z,4.05
2023-10-24T13:45:31.583Z,5.68
2023-10-24T13:47:59.347Z,7.43
2023-10-24T13:50:26.790Z,5.10
2023-10-24T13:52:54.788Z,3.92
2023-10-24T13:55:22.374Z,4.25
2023-10-24T13:57:50.467Z,4.80
2023-10-24T14:00:22.657Z,8.07
2023-10-24T14:02:50.652Z,5.95
2023-10-24T14:05:18.477Z,5.50
2023-10-24T14:07:51.302Z,6.10
2023-10-24T14:10:19.759Z,7.28
2023-10-24T14:12:52.325Z,5.47
2023-10-24T14:15:20.011Z,7.97
2023-10-24T14:17:48.093Z,8.30
2023-10-24T14:20:15.333Z,7.47
2023-10-24T14:22:44.962Z,6.00
2023-10-24T14:25:15.653Z,11.47
2023-10-24T14:27:43.940Z,9.52
2023-10-24T14:30:12.419Z,7.88
2023-10-24T14:32:40.600Z,7.35
2023-10-24T14:35:11.925Z,7.63
2023-10-24T14:37:39.549Z,11.57
2023-10-24T14:40:08.964Z,11.32
2023-10-24T14:42:36.813Z,5.88
2023-10-24T14:45:05.351Z,6.95
2023-10-24T14:47:32.793Z,5.25
2023-10-24T14:50:06.613Z,7.00
2023-10-24T14:52:34.433Z,7.13
2023-10-24T14:55:07.286Z,7.60
2023-10-24T14:57:35.205Z,5.30
2023-10-24T15:00:05.775Z,8.10
2023-10-24T15:02:40.005Z,6.73
2023-10-24T15:05:10.869Z,7.60
2023-10-24T15:07:38.626Z,3.92
2023-10-24T15:10:09.609Z,2.85
2023-10-24T15:12:37.157Z,3.67
2023-10-24T15:15:05.076Z,7.47
2023-10-24T15:17:32.647Z,3.10
2023-10-24T15:20:00.262Z,5.25
2023-10-24T15:22:28.458Z,4.05
2023-10-24T15:24:56.090Z,4.63
2023-10-24T15:27:24.074Z,6.93
2023-10-24T15:29:55.886Z,2.53
2023-10-24T15:32:30.553Z,7.40
2023-10-24T15:34:58.247Z,4.60
2023-10-24T15:37:26.646Z,3.67
2023-10-24T15:39:54.511Z,4.83
2023-10-24T15:42:21.890Z,6.00
2023-10-24T15:44:56.274Z,6.18
2023-10-24T15:47:24.105Z,4.05
2023-10-24T15:49:54.113Z,8.07
2023-10-24T15:52:22.618Z,3.93
2023-10-24T15:55:03.323Z,3.65
2023-10-24T15:57:40.183Z,6.13
2023-10-24T16:00:09.243Z,3.45
2023-10-24T16:02:37.437Z,3.55
2023-10-24T16:05:06.075Z,7.33
2023-10-24T16:07:36.554Z,8.50
2023-10-24T16:10:06.681Z,7.35
2023-10-24T16:12:39.389Z,6.40
2023-10-24T16:15:07.678Z,3.10
2023-10-24T16:17:41.985Z,5.90
2023-10-24T16:20:13.417Z,11.10
2023-10-24T16:22:51.388Z,7.05
2023-10-24T16:25:19.090Z,8.80
2023-10-24T16:27:52.102Z,10.75
2023-10-24T16:30:19.458Z,8.90
2023-10-24T16:32:46.637Z,5.07
2023-10-24T16:35:13.847Z,7.90
2023-10-24T16:37:41.168Z,14.00
2023-10-24T16:40:08.944Z,6.05
2023-10-24T16:42:36.063Z,8.90
2023-10-24T16:45:03.486Z,5.80
2023-10-24T16:47:30.505Z,10.82
2023-10-24T16:49:57.651Z,3.63
2023-10-24T16:52:25.017Z,11.35
2023-10-24T16:54:53.001Z,4.23
2023-10-24T16:57:20.081Z,9.75
2023-10-24T16:59:47.430Z,6.47
2023-10-24T17:02:14.493Z,8.25
2023-10-24T17:04:44.702Z,8.00
2023-10-24T17:07:12.487Z,5.73
2023-10-24T17:09:42.593Z,6.45
2023-10-24T17:12:15.878Z,8.93
2023-10-24T17:14:44.275Z,8.30
2023-10-24T17:17:12.717Z,8.52
2023-10-24T17:19:40.112Z,9.97
2023-10-24T17:22:07.410Z,14.07
2023-10-24T17:24:45.512Z,10.23
2023-10-24T17:27:21.338Z,10.63
2023-10-24T17:29:58.560Z,11.68
2023-10-24T17:32:32.688Z,7.23
2023-10-24T17:35:14.196Z,8.23
2023-10-24T17:41:56.003Z,5.72
2023-10-24T17:44:24.863Z,7.60
2023-10-24T17:46:52.297Z,8.83
2023-10-24T17:49:19.552Z,12.82
2023-10-24T17:51:46.702Z,7.65
2023-10-24T17:54:13.871Z,9.32
2023-10-24T17:56:43.919Z,12.07
2023-10-24T17:59:12.705Z,9.10
2023-10-24T18:01:40.114Z,8.70
2023-10-24T18:04:07.467Z,12.82
2023-10-24T18:06:34.776Z,7.20
2023-10-24T18:09:02.074Z,7.78
2023-10-24T18:11:31.710Z,9.43
2023-10-24T18:13:59.162Z,8.48
2023-10-24T18:16:29.518Z,10.95
2023-10-24T18:19:00.352Z,8.25
2023-10-24T18:21:27.346Z,14.43
2023-10-24T18:23:54.565Z,10.73
2023-10-24T18:26:23.430Z,10.05
2023-10-24T18:28:50.816Z,9.82
2023-10-24T18:31:18.263Z,12.60
2023-10-24T18:33:46.017Z,9.52
2023-10-24T18:36:13.302Z,11.37
2023-10-24T18:38:42.364Z,6.82
2023-10-24T18:41:13.714Z,8.95
2023-10-24T18:43:42.263Z,6.68
2023-10-24T18:46:11.280Z,7.50
2023-10-24T18:48:41.932Z,9.00
2023-10-24T18:51:16.113Z,6.55
2023-10-24T18:53:49.254Z,9.73
2023-10-24T18:59:12.296Z,11.02
2023-10-24T19:01:40.335Z,9.97
2023-10-24T19:04:08.711Z,12.00
2023-10-24T19:06:36.834Z,10.60
2023-10-24T19:09:05.198Z,5.65
2023-10-24T19:11:32.923Z,7.55
2023-10-24T19:14:00.950Z,11.80
2023-10-24T19:16:33.009Z,7.10
2023-10-24T19:19:02.442Z,8.35
2023-10-24T19:21:33.586Z,9.85
2023-10-24T19:24:02.847Z,13.00
2023-10-24T19:26:35.416Z,7.90
2023-10-24T19:29:07.477Z,9.75
2023-10-24T19:31:40.270Z,6.82
2023-10-24T19:34:10.665Z,8.70
2023-10-24T19:36:38.277Z,11.07
2023-10-24T19:39:09.028Z,10.43
2023-10-24T19:41:36.697Z,15.27
2023-10-24T19:44:07.481Z,11.40
2023-10-24T19:46:51.752Z,10.63
2023-10-24T19:49:30.570Z,14.05
2023-10-24T19:52:01.461Z,9.10
2023-10-24T19:54:56.341Z,14.98
2023-10-24T19:57:23.565Z,8.60
2023-10-24T20:00:05.745Z,9.30
2023-10-24T20:02:35.038Z,9.38
2023-10-24T20:05:02.675Z,10.67
2023-10-24T20:07:30.524Z,9.80
2023-10-24T20:11:33.870Z,13.98
2023-10-24T20:12:46.491Z,16.02
2023-10-24T20:15:14.297Z,13.40
2023-10-24T20:17:42.967Z,15.63
2023-10-24T20:20:12.463Z,13.38
2023-10-24T20:22:40.498Z,10.88
2023-10-24T20:25:09.037Z,15.50
2023-10-24T20:27:39.076Z,11.52
2023-10-24T20:30:07.614Z,10.37
2023-10-24T20:32:35.390Z,11.85
2023-10-24T20:35:05.318Z,15.73
2023-10-24T20:37:32.451Z,9.88
2023-10-24T20:39:59.778Z,12.45
2023-10-24T20:42:27.860Z,19.33
2023-10-24T20:44:56.349Z,12.93
2023-10-24T20:47:23.755Z,17.90
2023-10-24T20:49:50.846Z,13.90
2023-10-24T20:52:18.193Z,14.57
2023-10-24T20:54:45.297Z,8.77
2023-10-24T20:57:14.253Z,12.20
2023-10-24T20:59:41.921Z,14.82
2023-10-24T21:02:09.095Z,13.35
2023-10-24T21:04:38.010Z,17.15
2023-10-24T21:07:06.104Z,12.93
2023-10-24T21:09:33.455Z,16.08
2023-10-24T21:12:01.260Z,10.32
2023-10-24T21:14:28.448Z,7.60
2023-10-24T21:16:55.508Z,6.07
2023-10-24T21:19:23.436Z,14.33
2023-10-24T21:21:50.832Z,7.65
2023-10-24T21:24:17.975Z,13.20
2023-10-24T21:26:45.598Z,14.02
2023-10-24T21:29:12.714Z,9.90
2023-10-24T21:31:40.456Z,14.83
2023-10-24T21:34:08.730Z,13.30
2023-10-24T21:36:35.956Z,16.77
2023-10-24T21:39:05.745Z,10.48
2023-10-24T21:41:33.392Z,13.18
2023-10-24T21:44:00.591Z,12.97
2023-10-24T21:46:27.550Z,13.68
2023-10-24T21:48:54.762Z,9.57
2023-10-24T21:51:23.175Z,12.23
2023-10-24T21:53:51.803Z,7.68
2023-10-24T21:56:20.222Z,11.10
2023-10-24T21:58:48.200Z,9.27
2023-10-24T22:03:49.509Z,9.75
2023-10-24T22:06:16.721Z,10.85
2023-10-24T22:08:43.608Z,11.93
2023-10-24T22:11:10.597Z,12.05
2023-10-24T22:13:37.457Z,15.73
2023-10-24T22:16:04.639Z,13.15
2023-10-24T22:18:31.756Z,14.45
2023-10-24T22:20:59.374Z,12.90
2023-10-24T22:23:26.362Z,15.10
2023-10-24T22:25:56.019Z,15.35
2023-10-24T22:28:23.088Z,12.77
2023-10-24T22:30:50.043Z,14.43
2023-10-24T22:33:17.058Z,14.53
2023-10-24T22:35:44.073Z,20.67
2023-10-24T22:38:11.082Z,13.88
2023-10-24T22:40:38.139Z,13.77
2023-10-24T22:43:05.107Z,15.05
2023-10-24T22:45:32.194Z,20.50
2023-10-24T22:47:59.460Z,19.38
2023-10-24T22:50:26.802Z,12.63
2023-10-24T22:52:53.935Z,15.93
2023-10-24T22:55:21.162Z,18.75
2023-10-24T22:57:48.190Z,15.90
2023-10-24T23:00:15.612Z,16.25
2023-10-24T23:02:42.921Z,16.90
2023-10-24T23:05:10.275Z,13.65
2023-10-24T23:07:37.383Z,19.00
2023-10-24T23:10:08.773Z,22.90
2023-10-24T23:12:36.640Z,13.65
2023-10-24T23:15:04.414Z,14.07
2023-10-24T23:17:32.252Z,12.30
2023-10-24T23:19:59.418Z,14.82
2023-10-24T23:22:26.562Z,18.07
2023-10-24T23:24:57.573Z,17.08
2023-10-24T23:27:25.472Z,13.68
2023-10-24T23:29:52.635Z,16.42
2023-10-24T23:32:20.091Z,14.60
2023-10-24T23:34:47.211Z,15.13
2023-10-24T23:37:14.375Z,19.00
2023-10-24T23:39:41.592Z,14.77
2023-10-24T23:42:09.735Z,18.08
2023-10-24T23:44:36.992Z,15.80
2023-10-24T23:47:04.316Z,13.70
2023-10-24T23:49:31.411Z,16.77
2023-10-24T23:51:58.549Z,15.02
2023-10-24T23:54:25.612Z,14.70
2023-10-24T23:56:52.969Z,17.02
2023-10-24T23:59:21.733Z,13.50
